Terminal Aerodrome Forecast
Issued by NWS Knoxville/Tri Cities, TN

Home | Current Version | Previous Version | Text Only | Print | Product List | Glossary On
Versions: 1 2 3 4 5 6 7 8 9 10 11 12 13 14 15 16 17 18 19 20 21 22
000
FTUS44 KMRX 162325
TAFTRI
TAF
KTRI 162325Z 1700/1724 24005KT P6SM VCTS SCT040CB BKN100
     FM170200 VRB02KT P6SM SCT050 BKN250
     FM170800 00000KT 3SM BR SCT003 SCT250
     FM171000 00000KT 1SM BR OVC003
     FM171300 00000KT 6SM BR BKN015
     FM171500 24003KT P6SM BKN030
     FM171700 24007KT P6SM VCTS SCT040CB=

USA.gov is the U.S. government's official web portal to all federal, state and local government web resources and services.